Time;durP1;ratioP1;P1;durP2;ratioP2;P2;SDS_P1;SDS_P2;PMS_P1;PMS_P2;Temp;Humidity;BMP_temperature;BMP_pressure;BME280_temperature;BME280_humidity;BME280_pressure;Samples;Min_cycle;Max_cycle;Signal;HPM_P1;HPM_P2
2024/03/10 00:01:58;;;;;;;12.70;3.45;;;;;;;;;;4994734;28;20120;-89
2024/03/10 00:04:24;;;;;;;9.52;2.53;;;;;;;;;;4978079;28;20139;-89
2024/03/10 00:06:50;;;;;;;11.82;3.08;;;;;;;;;;4979004;28;20120;-88
2024/03/10 00:09:17;;;;;;;10.88;3.20;;;;;;;;;;4993736;28;20049;-89
2024/03/10 00:11:43;;;;;;;12.60;2.90;;;;;;;;;;4979378;28;20702;-89
2024/03/10 00:14:09;;;;;;;10.23;2.67;;;;;;;;;;4989108;28;20030;-89
2024/03/10 00:16:36;;;;;;;12.45;3.38;;;;;;;;;;4978507;28;20037;-91
2024/03/10 00:19:03;;;;;;;12.13;2.65;;;;;;;;;;4980314;28;20029;-89
2024/03/10 00:21:29;;;;;;;9.27;2.22;;;;;;;;;;5003676;28;20049;-88
2024/03/10 00:23:56;;;;;;;9.55;2.60;;;;;;;;;;5000335;28;20064;-88
2024/03/10 00:26:22;;;;;;;11.10;2.88;;;;;;;;;;4981300;28;20048;-89
2024/03/10 00:28:49;;;;;;;;;;;;;;;;;;5002059;28;20025;-89
2024/03/10 00:31:15;;;;;;;10.55;3.40;;;;;;;;;;4995058;28;19913;-91
2024/03/10 00:33:44;;;;;;;9.90;2.60;;;;;;;;;;4990910;28;20033;-90
2024/03/10 00:36:10;;;;;;;11.07;2.60;;;;;;;;;;4971486;28;20030;-90
2024/03/10 00:38:37;;;;;;;9.90;2.10;;;;;;;;;;4974585;28;20470;-90
2024/03/10 00:41:04;;;;;;;12.52;2.67;;;;;;;;;;4975240;28;20581;-87
2024/03/10 00:43:31;;;;;;;10.60;2.72;;;;;;;;;;4998526;28;20042;-87
2024/03/10 00:45:57;;;;;;;11.02;2.28;;;;;;;;;;4994835;28;20937;-90
2024/03/10 00:48:23;;;;;;;8.82;2.08;;;;;;;;;;4991676;28;20030;-89
2024/03/10 00:50:49;;;;;;;9.80;2.10;;;;;;;;;;5011686;28;20044;-89
2024/03/10 00:53:16;;;;;;;11.70;2.47;;;;;;;;;;4984563;28;20485;-89
2024/03/10 00:55:46;;;;;;;12.40;2.28;;;;;;;;;;4995971;28;20037;-88
2024/03/10 00:58:12;;;;;;;12.55;2.63;;;;;;;;;;4974748;28;20132;-88
2024/03/10 01:00:38;;;;;;;12.35;2.35;;;;;;;;;;4979393;28;20597;-88
2024/03/10 01:03:06;;;;;;;14.70;2.05;;;;;;;;;;4991995;28;20040;-89
2024/03/10 01:05:33;;;;;;;10.00;2.25;;;;;;;;;;4975756;28;20399;-89
2024/03/10 01:08:02;;;;;;;12.27;2.55;;;;;;;;;;4992040;28;20034;-89
2024/03/10 01:10:28;;;;;;;12.88;2.00;;;;;;;;;;4974315;28;20073;-89
2024/03/10 01:12:55;;;;;;;11.23;2.28;;;;;;;;;;4978949;28;20033;-90
2024/03/10 01:15:21;;;;;;;11.52;2.25;;;;;;;;;;4994045;28;20112;-89
2024/03/10 01:17:47;;;;;;;;;;;;;;;;;;4999573;28;20041;-89
2024/03/10 01:20:13;;;;;;;12.88;2.47;;;;;;;;;;4982531;28;20620;-89
2024/03/10 01:22:42;;;;;;;9.13;2.33;;;;;;;;;;4978831;28;20030;-89
2024/03/10 01:25:08;;;;;;;12.20;2.38;;;;;;;;;;4996593;28;20143;-88
2024/03/10 01:27:35;;;;;;;11.90;2.17;;;;;;;;;;4994364;28;20055;-88
2024/03/10 01:30:01;;;;;;;;;;;;;;;;;;4990127;28;20029;-89
2024/03/10 01:32:27;;;;;;;10.65;2.22;;;;;;;;;;5000701;28;19924;-90
2024/03/10 01:34:53;;;;;;;10.15;2.00;;;;;;;;;;4980802;28;20037;-88
2024/03/10 01:37:19;;;;;;;10.52;1.90;;;;;;;;;;4974053;28;20129;-90
2024/03/10 01:39:46;;;;;;;11.40;2.50;;;;;;;;;;4996867;28;20037;-90
2024/03/10 01:42:12;;;;;;;11.13;2.13;;;;;;;;;;4973074;28;20033;-88
2024/03/10 01:44:38;;;;;;;10.63;2.10;;;;;;;;;;4996439;28;20049;-90
2024/03/10 01:47:04;;;;;;;7.93;1.80;;;;;;;;;;4976510;28;20129;-88
2024/03/10 01:49:33;;;;;;;10.02;1.92;;;;;;;;;;4985650;28;20033;-89
2024/03/10 01:52:00;;;;;;;10.80;1.92;;;;;;;;;;4996933;28;20065;-88
2024/03/10 01:54:26;;;;;;;;;;;;;;;;;;4981615;28;20018;-87
2024/03/10 01:56:53;;;;;;;10.20;2.10;;;;;;;;;;5000766;28;19917;-88
2024/03/10 01:59:20;;;;;;;9.32;2.13;;;;;;;;;;4979941;28;20777;-90
2024/03/10 02:01:46;;;;;;;10.48;2.25;;;;;;;;;;4999694;28;20041;-89
2024/03/10 02:04:14;;;;;;;9.95;2.38;;;;;;;;;;5009446;28;20013;-89
2024/03/10 02:06:45;;;;;;;11.00;2.10;;;;;;;;;;5017204;28;20040;-87
2024/03/10 02:09:12;;;;;;;10.73;2.00;;;;;;;;;;4990772;28;20109;-88
2024/03/10 02:11:39;;;;;;;11.73;1.85;;;;;;;;;;4989015;28;20087;-89
2024/03/10 02:14:05;;;;;;;;;;;;;;;;;;4989085;28;20034;-89
2024/03/10 02:16:31;;;;;;;8.95;1.92;;;;;;;;;;5000524;28;19940;-89
2024/03/10 02:18:57;;;;;;;9.73;2.42;;;;;;;;;;4991726;28;20013;-89
2024/03/10 02:21:25;;;;;;;8.30;1.70;;;;;;;;;;4988125;28;20475;-88
2024/03/10 02:23:55;;;;;;;8.77;1.70;;;;;;;;;;4990263;28;20042;-90
2024/03/10 02:26:22;;;;;;;9.73;1.98;;;;;;;;;;5001329;28;20040;-88
2024/03/10 02:29:04;;;;;;;;;;;;;;;;;;4991578;28;20021;-89
2024/03/10 02:48:00;;;;;;;8.57;1.83;;;;;;;;;;5002764;28;20033;-89
2024/03/10 02:50:26;;;;;;;11.35;2.08;;;;;;;;;;4988407;28;20133;-88
2024/03/10 02:52:52;;;;;;;10.73;1.98;;;;;;;;;;5004484;28;20490;-89
2024/03/10 02:55:18;;;;;;;8.20;2.00;;;;;;;;;;5004141;28;20033;-88
2024/03/10 02:57:47;;;;;;;7.95;1.98;;;;;;;;;;4983728;28;20033;-87
2024/03/10 03:00:15;;;;;;;11.30;2.63;;;;;;;;;;4978831;28;20104;-89
2024/03/10 03:02:42;;;;;;;9.32;1.95;;;;;;;;;;4997108;28;20033;-89
2024/03/10 03:05:08;;;;;;;8.98;1.85;;;;;;;;;;4994748;28;20034;-89
2024/03/10 03:07:34;;;;;;;10.52;1.88;;;;;;;;;;4981964;28;21431;-89
2024/03/10 03:10:00;;;;;;;10.20;2.30;;;;;;;;;;4980594;28;20049;-89
2024/03/10 03:12:26;;;;;;;9.80;2.05;;;;;;;;;;4980096;28;20061;-88
2024/03/10 03:14:52;;;;;;;14.40;2.22;;;;;;;;;;4999931;28;20125;-87
2024/03/10 03:17:19;;;;;;;11.60;3.47;;;;;;;;;;4976673;28;20456;-88
2024/03/10 03:19:45;;;;;;;11.25;2.35;;;;;;;;;;4978741;28;20034;-88
2024/03/10 03:22:11;;;;;;;10.95;2.17;;;;;;;;;;4977796;28;20041;-87
2024/03/10 03:24:37;;;;;;;11.48;3.22;;;;;;;;;;4981420;28;20033;-88
2024/03/10 03:27:04;;;;;;;9.48;2.00;;;;;;;;;;4980389;28;20033;-88
2024/03/10 03:29:30;;;;;;;10.98;2.30;;;;;;;;;;4980276;28;20496;-88
2024/03/10 03:31:56;;;;;;;9.10;2.10;;;;;;;;;;4982201;28;20065;-88
2024/03/10 03:34:23;;;;;;;10.00;2.10;;;;;;;;;;4994097;28;20043;-90
2024/03/10 03:36:49;;;;;;;11.52;2.53;;;;;;;;;;4999953;28;20045;-88
2024/03/10 03:39:15;;;;;;;9.50;2.20;;;;;;;;;;4978932;28;20034;-89
2024/03/10 03:41:41;;;;;;;9.40;2.30;;;;;;;;;;4987130;28;20037;-88
2024/03/10 03:44:07;;;;;;;9.68;2.20;;;;;;;;;;4980701;28;20030;-89
2024/03/10 03:46:36;;;;;;;11.15;2.13;;;;;;;;;;4991243;28;20034;-87
2024/03/10 03:49:03;;;;;;;10.20;1.95;;;;;;;;;;5000397;28;20037;-87
2024/03/10 03:51:30;;;;;;;8.45;1.98;;;;;;;;;;5000151;28;20026;-88
2024/03/10 03:53:56;;;;;;;8.07;1.70;;;;;;;;;;4986194;28;20057;-89
2024/03/10 03:56:22;;;;;;;;;;;;;;;;;;4985468;28;20336;-88
2024/03/10 03:58:49;;;;;;;9.32;1.90;;;;;;;;;;4982787;28;19920;-88
2024/03/10 04:01:16;;;;;;;12.70;2.15;;;;;;;;;;4981117;28;20124;-88
2024/03/10 04:03:43;;;;;;;10.15;2.00;;;;;;;;;;5011583;28;20049;-87
2024/03/10 04:06:09;;;;;;;10.57;2.30;;;;;;;;;;4976425;28;20034;-86
2024/03/10 04:08:35;;;;;;;12.82;2.50;;;;;;;;;;4985672;28;20064;-87
2024/03/10 04:11:01;;;;;;;10.00;1.98;;;;;;;;;;5013850;28;20025;-88
2024/03/10 04:13:28;;;;;;;10.82;2.15;;;;;;;;;;4997771;28;20036;-88
2024/03/10 04:15:54;;;;;;;13.35;2.15;;;;;;;;;;5014509;28;20010;-87
2024/03/10 04:18:21;;;;;;;9.52;2.28;;;;;;;;;;5014302;28;20025;-86
2024/03/10 04:20:47;;;;;;;11.35;2.38;;;;;;;;;;4995740;28;20030;-87
2024/03/10 04:23:13;;;;;;;10.55;2.30;;;;;;;;;;5000259;28;20026;-88
2024/03/10 04:25:39;;;;;;;13.13;2.53;;;;;;;;;;5002879;28;20033;-87
2024/03/10 04:28:05;;;;;;;14.30;2.38;;;;;;;;;;5016228;28;20037;-88
2024/03/10 04:30:31;;;;;;;12.95;2.33;;;;;;;;;;5015761;28;20112;-88
2024/03/10 04:32:57;;;;;;;9.77;1.80;;;;;;;;;;4986123;28;20038;-88
2024/03/10 04:35:24;;;;;;;13.40;2.45;;;;;;;;;;4980489;28;20121;-88
2024/03/10 04:37:53;;;;;;;10.98;2.38;;;;;;;;;;4988123;28;20025;-89
2024/03/10 04:40:19;;;;;;;13.13;2.50;;;;;;;;;;4977121;28;20033;-89
2024/03/10 04:42:45;;;;;;;9.82;2.90;;;;;;;;;;4985102;28;20061;-88
2024/03/10 04:45:12;;;;;;;11.60;3.05;;;;;;;;;;4977667;28;20033;-89
2024/03/10 04:47:44;;;;;;;13.23;2.30;;;;;;;;;;5078592;27;20940;-72
2024/03/10 04:50:10;;;;;;;10.25;2.40;;;;;;;;;;5062325;28;20023;-72
2024/03/10 04:52:37;;;;;;;11.68;2.05;;;;;;;;;;5050423;28;20039;-71
2024/03/10 04:55:05;;;;;;;10.40;2.45;;;;;;;;;;5061706;28;21316;-72
2024/03/10 04:57:32;;;;;;;12.07;2.50;;;;;;;;;;5066691;28;20034;-71
2024/03/10 04:59:59;;;;;;;8.02;1.98;;;;;;;;;;5066681;28;20100;-72
2024/03/10 05:02:25;;;;;;;11.40;2.20;;;;;;;;;;5059796;28;20032;-71
2024/03/10 05:04:51;;;;;;;12.07;2.85;;;;;;;;;;5063557;28;20054;-71
2024/03/10 05:07:17;;;;;;;12.73;3.22;;;;;;;;;;5042500;28;20039;-71
2024/03/10 05:09:44;;;;;;;12.55;2.80;;;;;;;;;;5060260;28;20139;-71
2024/03/10 05:12:12;;;;;;;10.43;2.47;;;;;;;;;;5059128;28;20110;-71
2024/03/10 05:14:38;;;;;;;10.95;2.22;;;;;;;;;;5064611;28;20063;-72
2024/03/10 05:17:04;;;;;;;10.52;2.33;;;;;;;;;;5062829;28;20098;-72
2024/03/10 05:19:30;;;;;;;10.43;2.00;;;;;;;;;;5046777;28;20032;-71
2024/03/10 05:21:57;;;;;;;11.75;2.00;;;;;;;;;;5062132;28;20580;-70
2024/03/10 05:24:23;;;;;;;11.57;2.25;;;;;;;;;;5042696;28;20046;-71
2024/03/10 05:26:49;;;;;;;10.63;1.85;;;;;;;;;;5044134;28;20036;-73
2024/03/10 05:29:15;;;;;;;;;;;;;;;;;;5041438;28;20067;-71
2024/03/10 05:31:43;;;;;;;9.05;2.00;;;;;;;;;;5064938;28;19998;-72
2024/03/10 05:34:10;;;;;;;13.65;2.33;;;;;;;;;;5061648;28;20036;-71
2024/03/10 05:36:36;;;;;;;12.43;2.40;;;;;;;;;;5063562;28;20123;-71
2024/03/10 05:39:02;;;;;;;12.23;2.05;;;;;;;;;;5060040;28;20044;-71
2024/03/10 05:41:28;;;;;;;10.75;2.17;;;;;;;;;;5059300;28;20040;-71
2024/03/10 05:43:55;;;;;;;10.48;1.98;;;;;;;;;;5063460;28;20036;-71
2024/03/10 05:46:21;;;;;;;10.48;2.00;;;;;;;;;;5059153;28;20052;-70
2024/03/10 05:48:47;;;;;;;14.90;2.55;;;;;;;;;;5064915;28;20027;-70
2024/03/10 05:51:13;;;;;;;9.68;2.00;;;;;;;;;;5059525;28;20027;-72
2024/03/10 05:53:40;;;;;;;9.73;1.90;;;;;;;;;;5063943;28;20489;-71
2024/03/10 05:56:07;;;;;;;;;;;;;;;;;;5060748;28;20140;-70
2024/03/10 05:58:38;;;;;;;7.88;1.60;;;;;;;;;;5048774;28;20669;-73
2024/03/10 06:01:05;;;;;;;9.68;2.05;;;;;;;;;;5048784;28;20024;-72
2024/03/10 06:03:31;;;;;;;12.00;2.20;;;;;;;;;;5049326;28;20036;-72
2024/03/10 06:05:57;;;;;;;10.70;1.75;;;;;;;;;;5045654;28;20032;-70
2024/03/10 06:08:23;;;;;;;11.55;2.15;;;;;;;;;;5044803;28;20035;-73
2024/03/10 06:10:50;;;;;;;10.88;1.90;;;;;;;;;;5050671;28;20028;-71
2024/03/10 06:13:16;;;;;;;;;;;;;;;;;;5045780;28;20111;-73
2024/03/10 06:15:42;;;;;;;12.30;2.08;;;;;;;;;;5045094;28;19916;-72
2024/03/10 06:26:22;;;;;;;8.27;2.00;;;;;;;;;;5044383;28;20172;-73
2024/03/10 06:28:49;;;;;;;10.48;2.08;;;;;;;;;;5050050;28;20126;-72
2024/03/10 06:31:16;;;;;;;9.13;1.88;;;;;;;;;;5042324;28;20032;-71
2024/03/10 06:33:42;;;;;;;10.88;2.10;;;;;;;;;;5048036;28;20454;-73
2024/03/10 06:36:08;;;;;;;9.35;2.05;;;;;;;;;;5044691;28;20742;-72
2024/03/10 06:38:38;;;;;;;9.75;1.98;;;;;;;;;;5051220;28;20028;-71
2024/03/10 06:41:08;;;;;;;9.15;1.88;;;;;;;;;;5051498;28;20036;-70
2024/03/10 06:43:34;;;;;;;9.60;2.15;;;;;;;;;;5052471;28;20039;-71
2024/03/10 06:46:00;;;;;;;;;;;;;;;;;;5051019;28;20044;-72
2024/03/10 06:48:26;;;;;;;10.65;2.38;;;;;;;;;;5041537;28;20008;-71
2024/03/10 06:50:53;;;;;;;;;;;;;;;;;;5047989;28;21321;-72
2024/03/10 06:53:19;;;;;;;11.10;2.67;;;;;;;;;;5044358;28;20080;-71
2024/03/10 06:55:45;;;;;;;12.30;3.75;;;;;;;;;;5046466;28;20121;-73
2024/03/10 06:58:11;;;;;;;11.30;3.17;;;;;;;;;;5045364;28;20040;-72
2024/03/10 07:00:40;;;;;;;10.02;2.20;;;;;;;;;;5050947;28;20143;-71
2024/03/10 07:03:07;;;;;;;10.75;2.50;;;;;;;;;;5041187;28;20121;-72
2024/03/10 07:05:33;;;;;;;9.57;2.10;;;;;;;;;;5048121;28;20037;-72
2024/03/10 07:08:00;;;;;;;8.55;1.73;;;;;;;;;;5047231;28;20545;-71
2024/03/10 07:10:31;;;;;;;10.60;1.85;;;;;;;;;;5044742;28;20036;-71
2024/03/10 07:12:57;;;;;;;10.32;2.30;;;;;;;;;;5045646;28;21230;-72
2024/03/10 07:15:24;;;;;;;8.10;2.10;;;;;;;;;;5045270;28;20074;-71
2024/03/10 07:17:50;;;;;;;11.52;2.30;;;;;;;;;;5046864;28;20034;-71
2024/03/10 07:20:16;;;;;;;9.93;2.05;;;;;;;;;;5048008;28;20094;-70
2024/03/10 07:22:42;;;;;;;9.55;1.90;;;;;;;;;;5048662;28;20526;-72
2024/03/10 07:25:10;;;;;;;9.40;2.17;;;;;;;;;;5043455;28;20593;-72
2024/03/10 07:27:36;;;;;;;9.73;1.98;;;;;;;;;;5045762;28;20051;-72
2024/03/10 07:30:04;;;;;;;8.40;2.00;;;;;;;;;;5044945;28;20036;-71
2024/03/10 07:32:31;;;;;;;10.55;1.65;;;;;;;;;;5046720;28;20567;-73
2024/03/10 07:35:00;;;;;;;10.10;1.60;;;;;;;;;;5045325;28;20568;-73
2024/03/10 07:37:27;;;;;;;10.65;1.85;;;;;;;;;;5041869;28;20024;-70
2024/03/10 07:39:56;;;;;;;11.23;2.00;;;;;;;;;;5046479;28;20051;-70
2024/03/10 07:42:23;;;;;;;9.07;1.90;;;;;;;;;;5043752;28;21676;-72
2024/03/10 07:44:49;;;;;;;10.68;2.08;;;;;;;;;;5045315;28;20036;-71
2024/03/10 07:47:16;;;;;;;11.15;2.00;;;;;;;;;;5040577;28;20104;-73
2024/03/10 07:49:42;;;;;;;9.77;1.88;;;;;;;;;;5048132;28;20032;-72
2024/03/10 07:52:08;;;;;;;9.98;2.22;;;;;;;;;;5044984;28;20028;-72
2024/03/10 07:54:34;;;;;;;9.85;1.92;;;;;;;;;;5047472;28;20391;-72
2024/03/10 07:57:00;;;;;;;9.68;1.90;;;;;;;;;;5047247;28;20039;-72
2024/03/10 07:59:26;;;;;;;9.63;1.92;;;;;;;;;;5044164;28;20031;-73
2024/03/10 08:01:53;;;;;;;7.93;1.55;;;;;;;;;;5045087;28;20036;-73
2024/03/10 08:04:19;;;;;;;6.40;1.40;;;;;;;;;;5042615;28;20131;-71
2024/03/10 08:06:46;;;;;;;6.93;1.73;;;;;;;;;;5046677;28;20031;-71
2024/03/10 08:09:17;;;;;;;8.40;1.88;;;;;;;;;;5041588;28;20035;-71
2024/03/10 08:11:44;;;;;;;7.47;1.50;;;;;;;;;;5042591;28;20020;-71
2024/03/10 08:14:10;;;;;;;;;;;;;;;;;;5044593;28;20020;-71
2024/03/10 08:16:37;;;;;;;7.73;1.37;;;;;;;;;;5044069;28;20428;-73
2024/03/10 08:19:03;;;;;;;;;;;;;;;;;;5043134;28;20028;-71
2024/03/10 08:21:29;;;;;;;7.10;1.65;;;;;;;;;;5045301;28;20032;-71
2024/03/10 08:23:55;;;;;;;;;;;;;;;;;;5044398;28;20439;-73
2024/03/10 08:26:22;;;;;;;6.10;1.30;;;;;;;;;;5042485;28;19970;-70
2024/03/10 08:28:48;;;;;;;9.80;1.65;;;;;;;;;;5042823;28;20040;-71
2024/03/10 08:31:16;;;;;;;11.38;1.52;;;;;;;;;;5039619;28;20028;-70
2024/03/10 08:33:42;;;;;;;8.30;1.50;;;;;;;;;;5043285;28;20166;-72
2024/03/10 08:36:09;;;;;;;8.77;1.50;;;;;;;;;;5040890;28;20044;-70
2024/03/10 08:38:35;;;;;;;;;;;;;;;;;;5046220;28;20032;-73
2024/03/10 08:41:01;;;;;;;6.53;1.55;;;;;;;;;;5044171;28;19969;-71
2024/03/10 08:43:28;;;;;;;;;;;;;;;;;;5044288;28;20115;-73
2024/03/10 08:45:54;;;;;;;10.10;1.60;;;;;;;;;;5044945;28;20046;-73
2024/03/10 08:48:21;;;;;;;9.45;1.58;;;;;;;;;;5041208;28;20059;-71
2024/03/10 08:50:47;;;;;;;8.52;1.55;;;;;;;;;;5043578;28;20012;-73
2024/03/10 08:53:13;;;;;;;7.85;1.70;;;;;;;;;;5042197;28;20117;-73
2024/03/10 08:55:40;;;;;;;7.90;1.45;;;;;;;;;;5045136;28;20039;-72
2024/03/10 08:58:07;;;;;;;8.07;1.50;;;;;;;;;;5039476;28;20479;-71
2024/03/10 09:00:33;;;;;;;;;;;;;;;;;;5047697;28;22203;-75
2024/03/10 09:02:59;;;;;;;8.32;1.60;;;;;;;;;;5046431;28;20338;-71
2024/03/10 09:05:25;;;;;;;;;;;;;;;;;;5039998;28;20652;-71
2024/03/10 09:07:51;;;;;;;5.50;1.10;;;;;;;;;;5044626;28;19919;-74
2024/03/10 09:10:18;;;;;;;7.35;1.55;;;;;;;;;;5040216;28;20020;-71
2024/03/10 09:12:44;;;;;;;;;;;;;;;;;;5044839;28;20769;-71
2024/03/10 09:15:12;;;;;;;7.20;1.33;;;;;;;;;;5042203;28;19965;-70
2024/03/10 09:17:41;;;;;;;5.53;1.20;;;;;;;;;;5041788;28;20127;-72
2024/03/10 09:20:13;;;;;;;6.53;1.40;;;;;;;;;;5041461;28;20031;-71
2024/03/10 09:22:40;;;;;;;10.10;1.65;;;;;;;;;;5042286;28;20040;-73
2024/03/10 09:25:07;;;;;;;6.55;1.25;;;;;;;;;;5037231;28;20032;-74
2024/03/10 09:27:34;;;;;;;6.93;1.50;;;;;;;;;;5045491;28;20039;-71
2024/03/10 09:30:00;;;;;;;7.65;1.60;;;;;;;;;;5042928;28;20039;-70
2024/03/10 09:32:27;;;;;;;6.72;1.33;;;;;;;;;;5042626;28;20043;-73
2024/03/10 09:34:53;;;;;;;6.25;1.20;;;;;;;;;;5046810;28;20553;-73
2024/03/10 09:37:20;;;;;;;7.43;1.00;;;;;;;;;;5042582;28;20118;-72
2024/03/10 09:39:46;;;;;;;10.43;1.50;;;;;;;;;;5047369;28;20032;-72
2024/03/10 09:42:14;;;;;;;;;;;;;;;;;;5044930;28;20834;-71
2024/03/10 09:44:42;;;;;;;7.65;1.60;;;;;;;;;;5044337;28;19916;-72
2024/03/10 09:47:09;;;;;;;6.35;1.38;;;;;;;;;;5043482;28;20043;-71
2024/03/10 09:49:38;;;;;;;8.63;1.95;;;;;;;;;;5047739;28;20096;-72
2024/03/10 09:52:06;;;;;;;8.90;1.60;;;;;;;;;;5042905;28;20021;-71
2024/03/10 09:54:33;;;;;;;12.23;8.57;;;;;;;;;;5045891;28;20101;-73
2024/03/10 09:56:59;;;;;;;;;;;;;;;;;;5045991;28;20032;-74
2024/03/10 09:59:36;;;;;;;9.27;3.17;;;;;;;;;;5043510;28;19912;-71
2024/03/10 10:02:06;;;;;;;16.90;10.25;;;;;;;;;;5043894;28;20089;-70
2024/03/10 10:04:46;;;;;;;9.07;3.08;;;;;;;;;;5045514;28;21481;-71
2024/03/10 10:07:13;;;;;;;8.93;2.35;;;;;;;;;;5042080;28;20036;-72
2024/03/10 10:09:39;;;;;;;10.57;3.95;;;;;;;;;;5044554;28;20037;-73
2024/03/10 10:12:06;;;;;;;11.38;4.60;;;;;;;;;;5039904;28;20046;-71
2024/03/10 10:14:33;;;;;;;8.45;2.17;;;;;;;;;;5045097;28;20040;-72
2024/03/10 10:16:59;;;;;;;11.52;3.33;;;;;;;;;;5046531;28;20017;-72
2024/03/10 10:19:26;;;;;;;7.00;1.80;;;;;;;;;;5044877;28;20039;-72
2024/03/10 10:21:52;;;;;;;8.15;2.33;;;;;;;;;;5043200;28;20020;-73
2024/03/10 10:24:19;;;;;;;6.32;1.50;;;;;;;;;;5044708;28;20169;-72
2024/03/10 10:26:58;;;;;;;7.97;2.20;;;;;;;;;;5044640;28;20040;-71
2024/03/10 10:29:25;;;;;;;6.88;1.42;;;;;;;;;;5042718;28;20571;-72
2024/03/10 10:31:58;;;;;;;7.25;1.75;;;;;;;;;;5044463;28;20052;-72
2024/03/10 10:34:24;;;;;;;7.97;2.67;;;;;;;;;;5041012;28;20251;-73
2024/03/10 10:36:54;;;;;;;11.23;3.30;;;;;;;;;;5043889;28;20074;-71
2024/03/10 10:39:29;;;;;;;10.80;3.45;;;;;;;;;;5044133;28;20100;-74
2024/03/10 10:41:56;;;;;;;5.68;1.05;;;;;;;;;;5047767;28;20031;-73
2024/03/10 10:44:24;;;;;;;9.25;1.65;;;;;;;;;;5042371;28;21549;-73
2024/03/10 10:46:51;;;;;;;8.35;1.90;;;;;;;;;;5045519;28;20044;-72
2024/03/10 10:49:21;;;;;;;8.82;2.35;;;;;;;;;;5039614;28;20064;-74
2024/03/10 10:51:50;;;;;;;7.07;1.58;;;;;;;;;;5049946;28;20048;-72
2024/03/10 10:54:19;;;;;;;7.40;1.40;;;;;;;;;;5045463;28;20044;-73
2024/03/10 10:56:54;;;;;;;9.00;2.75;;;;;;;;;;5045560;28;20079;-73
2024/03/10 10:59:21;;;;;;;6.15;1.20;;;;;;;;;;5042994;28;20528;-73
2024/03/10 11:01:50;;;;;;;8.88;2.58;;;;;;;;;;5046017;28;20075;-72
2024/03/10 11:04:24;;;;;;;7.38;1.50;;;;;;;;;;5043753;28;20106;-73
2024/03/10 11:06:54;;;;;;;9.85;2.40;;;;;;;;;;5046854;28;20028;-73
2024/03/10 11:09:30;;;;;;;7.95;1.83;;;;;;;;;;5047040;28;20833;-74
2024/03/10 11:11:57;;;;;;;8.93;1.90;;;;;;;;;;5047745;28;20870;-73
2024/03/10 11:14:27;;;;;;;7.20;1.30;;;;;;;;;;5047236;28;20036;-74
2024/03/10 11:17:13;;;;;;;6.13;1.70;;;;;;;;;;5044021;28;20023;-72
2024/03/10 11:19:40;;;;;;;6.32;1.95;;;;;;;;;;5047836;28;20512;-73
2024/03/10 11:22:08;;;;;;;18.80;13.98;;;;;;;;;;5044428;28;20058;-73
2024/03/10 11:24:35;;;;;;;15.32;10.55;;;;;;;;;;5050717;28;20027;-73
2024/03/10 11:27:20;;;;;;;8.02;2.60;;;;;;;;;;5048183;28;20035;-72
2024/03/10 11:29:48;;;;;;;8.38;3.28;;;;;;;;;;5044364;28;20102;-73
2024/03/10 11:32:32;;;;;;;4.10;1.00;;;;;;;;;;5044754;28;20035;-72
2024/03/10 11:35:00;;;;;;;8.93;3.55;;;;;;;;;;5047825;28;20032;-73
2024/03/10 11:37:26;;;;;;;7.10;1.92;;;;;;;;;;5046564;28;20105;-73
2024/03/10 11:39:52;;;;;;;15.02;5.05;;;;;;;;;;5049225;28;20037;-71
2024/03/10 11:42:18;;;;;;;;;;;;;;;;;;5048118;28;20042;-72
2024/03/10 11:44:46;;;;;;;7.53;1.52;;;;;;;;;;5046585;28;19937;-72
2024/03/10 11:47:12;;;;;;;6.88;1.52;;;;;;;;;;5044416;28;20048;-73
2024/03/10 11:49:39;;;;;;;6.88;2.00;;;;;;;;;;5045827;28;20036;-71
2024/03/10 11:52:06;;;;;;;7.78;2.15;;;;;;;;;;5048140;28;20024;-72
2024/03/10 11:54:35;;;;;;;8.30;2.70;;;;;;;;;;5049591;28;20029;-73
2024/03/10 11:57:07;;;;;;;8.63;2.50;;;;;;;;;;5049446;28;20036;-73
2024/03/10 11:59:34;;;;;;;6.75;2.03;;;;;;;;;;5043407;28;20033;-72
2024/03/10 12:02:00;;;;;;;6.72;1.83;;;;;;;;;;5048146;28;20099;-73
2024/03/10 12:04:27;;;;;;;8.05;2.53;;;;;;;;;;5045705;28;20569;-73
2024/03/10 12:06:53;;;;;;;9.18;2.78;;;;;;;;;;5048150;28;20041;-73
2024/03/10 12:09:22;;;;;;;8.35;1.80;;;;;;;;;;5043814;28;20119;-72
2024/03/10 12:11:49;;;;;;;10.57;3.58;;;;;;;;;;5052439;28;20093;-73
2024/03/10 12:14:16;;;;;;;14.95;7.10;;;;;;;;;;5045618;28;20032;-72
2024/03/10 12:16:47;;;;;;;15.93;6.38;;;;;;;;;;5045711;28;20032;-74
2024/03/10 12:19:14;;;;;;;9.50;2.53;;;;;;;;;;5042315;28;20071;-71
2024/03/10 12:21:41;;;;;;;10.10;2.78;;;;;;;;;;5048400;28;20032;-74
2024/03/10 12:24:08;;;;;;;9.20;1.92;;;;;;;;;;5044059;28;20187;-73
2024/03/10 12:26:34;;;;;;;8.02;2.10;;;;;;;;;;5048016;28;20036;-73
2024/03/10 12:29:00;;;;;;;6.40;1.27;;;;;;;;;;5048792;28;20032;-73
2024/03/10 12:31:27;;;;;;;9.45;2.10;;;;;;;;;;5042325;28;20038;-73
2024/03/10 12:33:55;;;;;;;8.45;1.80;;;;;;;;;;5051657;28;20154;-72
2024/03/10 12:36:22;;;;;;;9.15;2.10;;;;;;;;;;5044066;28;20446;-74
2024/03/10 12:38:48;;;;;;;9.73;3.83;;;;;;;;;;5046173;28;20072;-72
2024/03/10 12:41:14;;;;;;;9.05;1.77;;;;;;;;;;5047526;28;20562;-72
2024/03/10 12:43:45;;;;;;;8.77;2.92;;;;;;;;;;5048947;28;20048;-73
2024/03/10 12:46:17;;;;;;;9.35;2.00;;;;;;;;;;5040962;28;20044;-72
2024/03/10 12:48:47;;;;;;;11.98;2.80;;;;;;;;;;5046549;28;20032;-73
2024/03/10 12:51:14;;;;;;;8.07;1.80;;;;;;;;;;5044279;28;21311;-74
2024/03/10 12:53:40;;;;;;;11.52;3.47;;;;;;;;;;5046075;28;20074;-72
2024/03/10 12:56:11;;;;;;;10.55;3.05;;;;;;;;;;5045053;28;20536;-73
2024/03/10 12:58:38;;;;;;;6.55;1.52;;;;;;;;;;5046875;28;20028;-73
2024/03/10 13:01:04;;;;;;;8.40;2.70;;;;;;;;;;5044286;28;20075;-72
2024/03/10 13:03:33;;;;;;;6.75;1.50;;;;;;;;;;5045439;28;20124;-74
2024/03/10 13:05:59;;;;;;;9.57;3.30;;;;;;;;;;5047416;28;20032;-72
2024/03/10 13:08:26;;;;;;;12.15;2.75;;;;;;;;;;5042168;28;20039;-73
2024/03/10 13:10:52;;;;;;;7.15;2.08;;;;;;;;;;5048362;28;20538;-73
2024/03/10 13:13:19;;;;;;;6.57;1.42;;;;;;;;;;5048385;28;20638;-71
2024/03/10 13:15:45;;;;;;;10.82;4.22;;;;;;;;;;5048096;28;20027;-72
2024/03/10 13:18:14;;;;;;;11.68;6.18;;;;;;;;;;5045023;28;20562;-73
2024/03/10 13:20:40;;;;;;;7.22;1.70;;;;;;;;;;5049358;28;20062;-74
2024/03/10 13:23:07;;;;;;;7.07;2.15;;;;;;;;;;5049287;28;20036;-71
2024/03/10 13:25:33;;;;;;;8.52;2.13;;;;;;;;;;5050960;28;20031;-71
2024/03/10 13:28:00;;;;;;;8.10;2.85;;;;;;;;;;5050095;28;20060;-72
2024/03/10 13:30:26;;;;;;;9.05;3.38;;;;;;;;;;5048559;28;20020;-73
2024/03/10 13:32:53;;;;;;;10.20;2.30;;;;;;;;;;5051763;28;20107;-73
2024/03/10 13:35:19;;;;;;;7.82;1.85;;;;;;;;;;5049960;28;20016;-72
2024/03/10 13:37:46;;;;;;;8.27;3.00;;;;;;;;;;5050666;28;20036;-73
2024/03/10 13:40:13;;;;;;;11.02;3.75;;;;;;;;;;5045332;28;20094;-73
2024/03/10 13:42:44;;;;;;;7.30;1.85;;;;;;;;;;5053009;28;20106;-73
2024/03/10 13:45:11;;;;;;;9.13;3.25;;;;;;;;;;5047420;28;20033;-73
2024/03/10 13:47:39;;;;;;;8.55;2.10;;;;;;;;;;5052394;28;20048;-74
2024/03/10 13:50:06;;;;;;;7.82;2.22;;;;;;;;;;5048674;28;20039;-74
2024/03/10 13:52:32;;;;;;;13.95;8.25;;;;;;;;;;5049585;28;20028;-73
2024/03/10 13:54:59;;;;;;;12.00;4.82;;;;;;;;;;5051839;28;20036;-74
2024/03/10 13:57:26;;;;;;;8.15;3.28;;;;;;;;;;5047707;28;20043;-72
2024/03/10 13:59:56;;;;;;;7.75;2.50;;;;;;;;;;5052940;28;20769;-72
2024/03/10 14:02:22;;;;;;;6.35;1.17;;;;;;;;;;5047461;28;20024;-73
2024/03/10 14:04:48;;;;;;;10.82;4.15;;;;;;;;;;5048111;28;20028;-74
2024/03/10 14:07:15;;;;;;;6.75;1.42;;;;;;;;;;5044702;28;20032;-74
2024/03/10 14:09:45;;;;;;;8.50;3.28;;;;;;;;;;5048361;28;20024;-73
2024/03/10 14:12:12;;;;;;;11.30;6.18;;;;;;;;;;5044221;28;20031;-73
2024/03/10 14:14:42;;;;;;;4.43;1.33;;;;;;;;;;5052286;28;20740;-73
2024/03/10 14:17:08;;;;;;;9.38;2.72;;;;;;;;;;5042118;28;20044;-74
2024/03/10 14:19:37;;;;;;;6.30;1.17;;;;;;;;;;5046003;28;20105;-74
2024/03/10 14:22:03;;;;;;;7.47;1.52;;;;;;;;;;5045636;28;20039;-72
2024/03/10 14:24:29;;;;;;;9.68;3.70;;;;;;;;;;5049748;28;20063;-72
2024/03/10 14:26:56;;;;;;;8.02;1.50;;;;;;;;;;5047878;28;20352;-73
2024/03/10 14:29:25;;;;;;;11.18;2.75;;;;;;;;;;5048098;28;20067;-73
2024/03/10 14:31:51;;;;;;;9.20;3.33;;;;;;;;;;5049093;28;20040;-72
2024/03/10 14:34:17;;;;;;;11.77;4.13;;;;;;;;;;5042558;28;20529;-72
2024/03/10 14:36:44;;;;;;;9.93;2.83;;;;;;;;;;5046542;28;20023;-74
2024/03/10 14:39:12;;;;;;;9.93;2.72;;;;;;;;;;5046906;28;20032;-73
2024/03/10 14:41:39;;;;;;;6.10;1.77;;;;;;;;;;5048478;28;20020;-74
2024/03/10 14:44:05;;;;;;;11.40;4.15;;;;;;;;;;5047716;28;20174;-75
2024/03/10 14:46:33;;;;;;;8.45;2.30;;;;;;;;;;5051750;28;20142;-74
2024/03/10 14:49:00;;;;;;;7.13;1.92;;;;;;;;;;5047489;28;20024;-73
2024/03/10 14:51:26;;;;;;;9.55;2.00;;;;;;;;;;5048521;28;20071;-73
2024/03/10 14:53:52;;;;;;;;;;;;;;;;;;5049726;28;20032;-74
2024/03/10 14:56:19;;;;;;;10.63;3.97;;;;;;;;;;5043940;28;19920;-73
2024/03/10 14:58:47;;;;;;;10.07;4.32;;;;;;;;;;5046575;28;20032;-73
2024/03/10 15:01:13;;;;;;;5.53;1.17;;;;;;;;;;5044908;28;20036;-74
2024/03/10 15:03:41;;;;;;;9.10;2.45;;;;;;;;;;5047206;28;20036;-73
2024/03/10 15:06:08;;;;;;;7.75;2.17;;;;;;;;;;5045172;28;20044;-73
2024/03/10 15:08:37;;;;;;;8.75;3.60;;;;;;;;;;5049185;28;20032;-74
2024/03/10 15:11:05;;;;;;;12.65;2.63;;;;;;;;;;5047231;28;20028;-73